createdAt,value
2022-09-07T00:01:25.783Z,19.23
2022-09-07T00:03:56.744Z,18.00
2022-09-07T00:06:26.251Z,20.87
2022-09-07T00:08:54.891Z,21.17
2022-09-07T00:11:23.573Z,21.60
2022-09-07T00:13:53.671Z,19.27
2022-09-07T00:16:25.497Z,19.83
2022-09-07T00:18:57.235Z,18.60
2022-09-07T00:21:26.231Z,18.97
2022-09-07T00:23:55.588Z,19.00
2022-09-07T00:26:26.017Z,18.93
2022-09-07T00:28:59.605Z,19.10
2022-09-07T00:31:29.161Z,19.77
2022-09-07T00:34:00.663Z,20.20
2022-09-07T00:36:30.182Z,19.10
2022-09-07T00:39:01.863Z,19.93
2022-09-07T00:41:30.625Z,21.03
2022-09-07T00:44:16.247Z,21.70
2022-09-07T00:46:45.340Z,22.57
2022-09-07T00:49:19.447Z,21.77
2022-09-07T00:51:53.214Z,23.10
2022-09-07T00:54:26.091Z,21.77
2022-09-07T00:56:55.891Z,25.40
2022-09-07T00:59:37.659Z,24.17
2022-09-07T01:02:07.003Z,26.10
2022-09-07T01:04:39.567Z,25.53
2022-09-07T01:07:09.359Z,23.90
2022-09-07T01:09:41.872Z,22.40
2022-09-07T01:12:16.207Z,22.03
2022-09-07T01:14:48.845Z,21.10
2022-09-07T01:17:25.393Z,22.03
2022-09-07T01:20:26.551Z,21.20
2022-09-07T01:23:24.165Z,21.27
2022-09-07T01:26:27.099Z,21.60
2022-09-07T01:29:05.090Z,20.57
2022-09-07T01:31:43.692Z,21.13
2022-09-07T01:34:24.647Z,20.93
2022-09-07T01:37:01.577Z,21.97
2022-09-07T01:39:36.468Z,20.50
2022-09-07T01:42:12.613Z,21.67
2022-09-07T01:44:49.069Z,22.80
2022-09-07T01:47:25.994Z,23.70
2022-09-07T01:50:00.442Z,22.53
2022-09-07T01:52:39.302Z,22.67
2022-09-07T01:55:16.595Z,26.13
2022-09-07T01:57:55.914Z,23.27
2022-09-07T02:00:27.045Z,24.00
2022-09-07T02:03:07.426Z,24.80
2022-09-07T02:05:43.260Z,23.70
2022-09-07T02:08:17.148Z,22.83
2022-09-07T02:10:50.589Z,24.50
2022-09-07T02:13:24.669Z,24.20
2022-09-07T02:16:08.756Z,24.00
2022-09-07T02:18:43.963Z,23.50
2022-09-07T02:21:17.485Z,23.40
2022-09-07T02:24:07.596Z,23.07
2022-09-07T02:26:41.554Z,22.80
2022-09-07T02:29:10.466Z,23.93
2022-09-07T02:31:49.109Z,21.53
2022-09-07T02:34:28.786Z,23.87
2022-09-07T02:37:03.426Z,22.00
2022-09-07T02:39:38.678Z,22.63
2022-09-07T02:42:26.717Z,21.23
2022-09-07T02:45:03.711Z,24.00
2022-09-07T02:47:52.265Z,24.03
2022-09-07T02:50:49.072Z,24.57
2022-09-07T02:53:45.526Z,25.20
2022-09-07T02:56:43.714Z,24.17
2022-09-07T02:59:44.362Z,24.77
2022-09-07T03:02:24.230Z,25.30
2022-09-07T03:05:15.894Z,24.30
2022-09-07T03:07:55.955Z,25.80
2022-09-07T03:10:51.540Z,23.83
2022-09-07T03:13:39.549Z,23.57
2022-09-07T03:16:35.282Z,22.53
2022-09-07T03:19:30.132Z,23.90
2022-09-07T03:22:13.345Z,24.67
2022-09-07T03:24:52.717Z,24.10
2022-09-07T03:27:33.741Z,26.30
2022-09-07T03:30:12.513Z,25.90
2022-09-07T03:32:48.335Z,24.87
2022-09-07T03:35:43.484Z,21.83
2022-09-07T03:38:19.721Z,22.80
2022-09-07T03:41:02.389Z,20.27
2022-09-07T03:43:40.661Z,22.73
2022-09-07T03:46:28.579Z,22.53
2022-09-07T03:48:59.928Z,21.77
2022-09-07T03:51:31.895Z,22.13
2022-09-07T03:54:17.799Z,25.37
2022-09-07T03:56:49.804Z,24.33
2022-09-07T03:59:21.616Z,25.33
2022-09-07T04:01:53.552Z,23.03
2022-09-07T04:04:24.474Z,26.57
2022-09-07T04:06:53.547Z,22.13
2022-09-07T04:09:24.087Z,22.80
2022-09-07T04:11:55.886Z,22.77
2022-09-07T04:14:24.834Z,22.77
2022-09-07T04:16:56.335Z,20.20
2022-09-07T04:19:28.577Z,21.90
2022-09-07T04:21:57.811Z,21.67
2022-09-07T04:24:34.232Z,20.17
2022-09-07T04:27:20.544Z,20.13
2022-09-07T04:29:56.620Z,23.27
2022-09-07T04:32:42.003Z,22.07
2022-09-07T04:35:16.342Z,23.40
2022-09-07T04:37:57.513Z,27.00
2022-09-07T04:40:32.265Z,24.20
2022-09-07T04:43:08.446Z,24.57
2022-09-07T04:45:51.737Z,25.73
2022-09-07T04:48:23.543Z,24.50
2022-09-07T04:50:55.218Z,25.40
2022-09-07T04:53:31.872Z,26.20
2022-09-07T04:56:03.748Z,26.97
2022-09-07T04:58:33.303Z,25.97
2022-09-07T05:01:06.801Z,26.60
2022-09-07T05:03:40.474Z,26.83
2022-09-07T05:06:12.781Z,25.23
2022-09-07T05:08:43.225Z,23.00
2022-09-07T05:11:14.949Z,25.07
2022-09-07T05:13:44.084Z,26.13
2022-09-07T05:16:14.547Z,23.10
2022-09-07T05:18:43.816Z,24.40
2022-09-07T05:21:14.489Z,22.80
2022-09-07T05:23:43.931Z,24.03
2022-09-07T05:26:14.676Z,21.27
2022-09-07T05:28:43.264Z,22.63
2022-09-07T05:36:38.925Z,17.90
2022-09-07T05:39:08.773Z,19.70
2022-09-07T05:41:38.851Z,17.20
2022-09-07T05:46:57.885Z,17.10
2022-09-07T05:49:26.516Z,16.77
2022-09-07T05:51:55.051Z,15.10
2022-09-07T05:54:23.584Z,14.70
2022-09-07T05:56:53.688Z,14.90
2022-09-07T05:59:22.335Z,15.87
2022-09-07T06:01:51.096Z,14.60
2022-09-07T06:04:19.923Z,14.20
2022-09-07T06:07:17.757Z,12.40
2022-09-07T06:12:28.115Z,12.93
2022-09-07T06:14:56.701Z,12.60
2022-09-07T06:17:25.480Z,13.97
2022-09-07T06:19:54.901Z,15.20
2022-09-07T06:22:25.817Z,14.97
2022-09-07T06:24:57.494Z,13.73
2022-09-07T06:27:27.399Z,14.80
2022-09-07T06:29:56.090Z,15.10
2022-09-07T06:35:09.466Z,16.00
2022-09-07T06:37:38.001Z,15.40
2022-09-07T06:40:07.719Z,15.93
2022-09-07T06:42:37.781Z,17.47
2022-09-07T06:45:07.251Z,16.10
2022-09-07T06:47:35.774Z,18.40
2022-09-07T06:50:04.380Z,16.33
2022-09-07T06:55:21.440Z,15.37
2022-09-07T06:57:54.402Z,16.33
2022-09-07T07:00:23.011Z,17.40
2022-09-07T07:02:54.008Z,16.67
2022-09-07T07:05:22.615Z,16.63
2022-09-07T07:07:51.171Z,16.93
2022-09-07T07:10:24.260Z,17.07
2022-09-07T07:12:57.989Z,18.00
2022-09-07T07:15:28.908Z,16.23
2022-09-07T07:18:02.644Z,16.00
2022-09-07T07:20:38.147Z,17.20
2022-09-07T07:23:06.885Z,15.43
2022-09-07T07:25:36.381Z,16.20
2022-09-07T07:30:57.280Z,16.03
2022-09-07T07:33:26.128Z,15.40
2022-09-07T07:35:54.932Z,17.33
2022-09-07T07:44:03.249Z,16.03
2022-09-07T07:46:32.381Z,14.63
2022-09-07T07:49:01.003Z,13.93
2022-09-07T07:51:29.775Z,13.90
2022-09-07T07:53:58.792Z,13.90
2022-09-07T07:56:27.705Z,13.90
2022-09-07T07:58:56.373Z,13.90
2022-09-07T08:01:26.497Z,13.77
2022-09-07T08:03:55.227Z,13.13
2022-09-07T08:06:24.229Z,13.13
2022-09-07T08:08:52.845Z,14.80
2022-09-07T08:11:23.854Z,12.90
2022-09-07T08:13:53.630Z,12.40
2022-09-07T08:16:22.964Z,13.27
2022-09-07T08:18:53.812Z,12.90
2022-09-07T08:21:22.409Z,12.47
2022-09-07T08:23:54.149Z,12.80
2022-09-07T08:26:22.832Z,12.20
2022-09-07T08:28:51.342Z,13.00
2022-09-07T08:31:20.188Z,13.17
2022-09-07T08:33:48.851Z,12.13
2022-09-07T08:36:20.904Z,12.70
2022-09-07T08:38:49.787Z,12.63
2022-09-07T08:41:37.997Z,12.10
2022-09-07T08:44:12.921Z,11.57
2022-09-07T08:46:46.873Z,11.60
2022-09-07T08:49:20.735Z,12.43
2022-09-07T08:51:56.020Z,12.77
2022-09-07T08:54:24.575Z,11.40
2022-09-07T08:59:55.016Z,13.60
2022-09-07T09:02:27.664Z,10.57
2022-09-07T09:07:56.238Z,11.80
2022-09-07T09:10:34.462Z,11.33
2022-09-07T09:13:10.988Z,11.37
2022-09-07T09:15:53.475Z,10.70
2022-09-07T09:18:37.858Z,11.90
2022-09-07T09:21:07.940Z,11.60
2022-09-07T09:23:41.762Z,11.13
2022-09-07T09:26:15.315Z,9.47
2022-09-07T09:28:43.887Z,10.00
2022-09-07T09:31:24.287Z,9.90
2022-09-07T09:34:14.471Z,9.60
2022-09-07T09:36:46.411Z,10.17
2022-09-07T09:39:29.851Z,12.67
2022-09-07T09:42:00.888Z,12.80
2022-09-07T09:44:35.092Z,11.90
2022-09-07T09:49:53.668Z,10.53
2022-09-07T09:52:34.810Z,10.10
2022-09-07T09:55:34.521Z,11.13
2022-09-07T10:04:04.643Z,10.10
2022-09-07T10:06:34.690Z,9.43
2022-09-07T10:09:03.974Z,10.03
2022-09-07T10:14:37.287Z,9.40
2022-09-07T10:17:20.562Z,8.53
2022-09-07T10:19:49.644Z,10.40
2022-09-07T10:22:33.980Z,9.20
2022-09-07T10:25:23.012Z,9.80
2022-09-07T10:28:04.114Z,9.43
2022-09-07T10:30:41.203Z,9.77
2022-09-07T10:33:18.029Z,10.33
2022-09-07T10:35:54.701Z,11.20
2022-09-07T10:38:25.008Z,10.73
2022-09-07T10:41:00.918Z,10.93
2022-09-07T10:43:43.428Z,10.60
2022-09-07T10:49:24.962Z,10.50
2022-09-07T10:52:03.675Z,9.80
2022-09-07T10:54:41.112Z,10.43
2022-09-07T10:57:29.029Z,9.93
2022-09-07T11:00:09.698Z,10.87
2022-09-07T11:03:26.068Z,10.07
2022-09-07T11:06:07.261Z,10.53
2022-09-07T11:12:03.636Z,9.00
2022-09-07T11:14:39.380Z,9.77
2022-09-07T11:17:16.648Z,10.63
2022-09-07T11:19:53.673Z,9.50
2022-09-07T11:22:33.522Z,9.57
2022-09-07T11:28:03.634Z,10.43
2022-09-07T11:30:35.805Z,10.10
2022-09-07T11:33:16.545Z,10.00
2022-09-07T11:35:51.904Z,10.00
2022-09-07T11:38:29.096Z,9.50
2022-09-07T11:41:17.407Z,10.17
2022-09-07T11:43:49.155Z,9.60
2022-09-07T11:46:26.844Z,10.40
2022-09-07T11:48:57.738Z,9.90
2022-09-07T11:51:36.477Z,10.13
2022-09-07T11:54:18.149Z,9.43
2022-09-07T11:56:51.715Z,10.40
2022-09-07T11:59:36.793Z,9.27
2022-09-07T12:02:58.292Z,10.17
2022-09-07T12:05:43.872Z,10.47
2022-09-07T12:08:22.965Z,10.17
2022-09-07T12:11:00.571Z,10.80
2022-09-07T12:14:05.211Z,9.83
2022-09-07T12:16:47.451Z,10.33
2022-09-07T12:19:20.002Z,11.23
2022-09-07T12:21:57.658Z,9.50
2022-09-07T12:24:41.378Z,10.80
2022-09-07T12:27:37.433Z,9.50
2022-09-07T12:30:44.651Z,11.37
2022-09-07T12:33:28.826Z,10.67
2022-09-07T12:35:59.000Z,10.47
2022-09-07T12:39:04.351Z,11.17
2022-09-07T12:41:47.557Z,12.70
2022-09-07T12:44:28.699Z,11.43
2022-09-07T12:47:00.486Z,11.50
2022-09-07T12:50:14.595Z,11.80
2022-09-07T12:53:20.487Z,13.23
2022-09-07T12:56:15.999Z,12.60
2022-09-07T12:58:56.909Z,12.90
2022-09-07T13:01:37.882Z,13.10
2022-09-07T13:04:28.107Z,13.50
2022-09-07T13:07:36.226Z,15.47
2022-09-07T13:10:17.649Z,15.77
2022-09-07T13:12:53.989Z,15.10
2022-09-07T13:15:45.257Z,17.13
2022-09-07T13:18:43.940Z,18.83
2022-09-07T13:21:35.262Z,18.40
2022-09-07T13:24:46.296Z,18.87
2022-09-07T13:27:44.325Z,18.80
2022-09-07T13:30:38.818Z,17.90
2022-09-07T13:33:52.250Z,16.67
2022-09-07T13:36:32.297Z,13.53
2022-09-07T13:39:01.293Z,12.37
2022-09-07T13:41:36.778Z,12.50
2022-09-07T13:44:05.954Z,12.97
2022-09-07T13:46:48.843Z,9.33
2022-09-07T13:49:29.893Z,10.37
2022-09-07T13:52:08.415Z,7.70
2022-09-07T13:54:53.030Z,8.60
2022-09-07T13:57:28.410Z,8.57
2022-09-07T13:59:57.857Z,8.47
2022-09-07T14:02:29.822Z,7.70
2022-09-07T14:05:00.395Z,6.70
2022-09-07T14:07:31.686Z,5.63
2022-09-07T14:10:11.589Z,6.80
2022-09-07T14:12:44.699Z,5.80
2022-09-07T14:15:22.062Z,4.77
2022-09-07T14:17:54.315Z,5.20
2022-09-07T14:20:23.825Z,5.20
2022-09-07T14:22:54.399Z,7.20
2022-09-07T14:25:23.604Z,6.07
2022-09-07T14:27:52.043Z,6.10
2022-09-07T14:30:27.942Z,5.57
2022-09-07T14:32:58.633Z,5.63
2022-09-07T14:35:28.835Z,5.93
2022-09-07T14:38:06.855Z,5.83
2022-09-07T14:40:36.753Z,5.90
2022-09-07T14:43:05.379Z,6.83
2022-09-07T14:45:35.240Z,7.30
2022-09-07T14:48:14.763Z,6.97
2022-09-07T14:51:05.502Z,6.37
2022-09-07T14:53:39.945Z,6.00
2022-09-07T14:56:11.553Z,7.23
2022-09-07T14:58:40.011Z,7.33
2022-09-07T15:04:19.134Z,6.47
2022-09-07T15:07:03.556Z,6.87
2022-09-07T15:09:39.074Z,6.93
2022-09-07T15:12:24.928Z,7.50
2022-09-07T15:15:11.720Z,8.60
2022-09-07T15:17:43.822Z,8.93
2022-09-07T15:20:38.536Z,8.17
2022-09-07T15:23:10.650Z,11.37
2022-09-07T15:25:42.567Z,10.80
2022-09-07T15:34:01.311Z,10.90
2022-09-07T15:36:32.059Z,10.30
2022-09-07T15:39:01.257Z,11.40
2022-09-07T15:41:31.375Z,10.13
2022-09-07T15:44:00.403Z,11.17
2022-09-07T15:46:29.193Z,11.00
2022-09-07T15:48:58.425Z,10.13
2022-09-07T15:54:17.001Z,10.20
2022-09-07T15:57:48.511Z,10.00
2022-09-07T15:59:35.944Z,11.67
2022-09-07T16:03:04.708Z,10.33
2022-09-07T16:04:53.275Z,11.10
2022-09-07T16:07:22.775Z,9.63
2022-09-07T16:09:52.552Z,11.40
2022-09-07T16:15:12.658Z,11.00
2022-09-07T16:17:47.287Z,12.10
2022-09-07T16:20:16.609Z,11.20
2022-09-07T16:25:36.507Z,12.00
2022-09-07T16:28:07.545Z,11.33
2022-09-07T16:30:39.445Z,12.43
2022-09-07T16:33:08.171Z,10.43
2022-09-07T16:35:36.794Z,11.17
2022-09-07T16:40:53.769Z,12.27
2022-09-07T16:43:23.656Z,13.60
2022-09-07T16:46:03.472Z,12.47
2022-09-07T16:48:33.290Z,13.27
2022-09-07T16:51:02.864Z,12.60
2022-09-07T16:53:36.372Z,15.03
2022-09-07T16:56:05.467Z,13.43
2022-09-07T16:58:37.803Z,13.63
2022-09-07T17:01:06.954Z,12.00
2022-09-07T17:03:35.726Z,13.93
2022-09-07T17:06:05.242Z,13.20
2022-09-07T17:08:35.219Z,14.43
2022-09-07T17:11:05.162Z,12.50
2022-09-07T17:13:36.566Z,12.47
2022-09-07T17:16:06.085Z,14.90
2022-09-07T17:21:23.869Z,15.37
2022-09-07T17:23:55.791Z,15.80
2022-09-07T17:26:27.451Z,16.20
2022-09-07T17:29:00.635Z,16.60
2022-09-07T17:34:20.678Z,16.70
2022-09-07T17:36:49.496Z,16.53
2022-09-07T17:39:19.283Z,15.93
2022-09-07T17:41:48.190Z,17.37
2022-09-07T17:44:18.274Z,16.07
2022-09-07T17:46:46.777Z,16.10
2022-09-07T17:49:16.765Z,15.33
2022-09-07T17:51:46.519Z,14.87
2022-09-07T17:54:17.464Z,15.47
2022-09-07T17:56:46.577Z,17.17
2022-09-07T18:02:05.079Z,17.47
2022-09-07T18:04:35.770Z,17.70
2022-09-07T18:07:04.703Z,17.60
2022-09-07T18:09:33.309Z,15.83
2022-09-07T18:12:01.825Z,16.43
2022-09-07T18:14:31.148Z,16.00
2022-09-07T18:17:00.358Z,15.93
2022-09-07T18:19:30.347Z,17.40
2022-09-07T18:21:59.391Z,15.93
2022-09-07T18:24:28.123Z,15.57
2022-09-07T18:26:56.700Z,14.40
2022-09-07T18:29:29.873Z,12.50
2022-09-07T18:32:01.346Z,13.43
2022-09-07T18:34:32.181Z,12.53
2022-09-07T18:37:01.139Z,12.27
2022-09-07T18:39:29.964Z,12.63
2022-09-07T18:41:58.896Z,12.33
2022-09-07T18:47:22.200Z,14.60
2022-09-07T18:49:57.563Z,12.73
2022-09-07T18:55:15.471Z,11.97
2022-09-07T18:57:44.893Z,12.40
2022-09-07T19:00:14.276Z,12.03
2022-09-07T19:02:43.055Z,12.67
2022-09-07T19:08:03.576Z,12.87
2022-09-07T19:10:35.841Z,13.20
2022-09-07T19:13:04.900Z,12.83
2022-09-07T19:15:37.437Z,12.43
2022-09-07T19:18:07.809Z,11.60
2022-09-07T19:20:38.374Z,13.70
2022-09-07T19:23:06.985Z,13.10
2022-09-07T19:25:35.482Z,14.03
2022-09-07T19:28:04.258Z,13.20
2022-09-07T19:30:34.852Z,13.57
2022-09-07T19:33:04.496Z,12.73
2022-09-07T19:35:37.887Z,12.40
2022-09-07T19:38:06.888Z,27.77
2022-09-07T19:40:35.739Z,16.03
2022-09-07T19:43:04.293Z,13.07
2022-09-07T19:48:32.993Z,12.53
2022-09-07T19:51:07.550Z,12.67
2022-09-07T19:53:37.434Z,13.70
2022-09-07T19:56:07.134Z,14.40
2022-09-07T19:58:36.430Z,13.00
2022-09-07T20:01:09.184Z,14.20
2022-09-07T20:03:37.870Z,13.43
2022-09-07T20:06:09.069Z,13.97
2022-09-07T20:08:38.130Z,13.50
2022-09-07T20:11:08.372Z,14.50
2022-09-07T20:13:37.681Z,14.90
2022-09-07T20:16:07.788Z,13.30
2022-09-07T20:18:36.918Z,13.00
2022-09-07T20:21:08.211Z,13.67
2022-09-07T20:23:37.181Z,15.67
2022-09-07T20:26:07.961Z,16.17
2022-09-07T20:28:37.177Z,14.77
2022-09-07T20:31:08.318Z,15.37
2022-09-07T20:33:37.307Z,15.10
2022-09-07T20:36:09.071Z,15.67
2022-09-07T20:38:41.454Z,16.53
2022-09-07T20:41:14.397Z,16.80
2022-09-07T20:43:42.844Z,16.50
2022-09-07T20:46:11.286Z,17.47
2022-09-07T20:48:40.170Z,18.57
2022-09-07T20:51:13.447Z,17.60
2022-09-07T20:53:42.276Z,19.83
2022-09-07T20:56:14.280Z,20.10
2022-09-07T20:58:43.615Z,18.50
2022-09-07T21:01:12.639Z,20.73
2022-09-07T21:03:43.251Z,20.37
2022-09-07T21:06:16.018Z,22.60
2022-09-07T21:08:46.674Z,21.97
2022-09-07T21:11:16.932Z,21.60
2022-09-07T21:13:46.625Z,20.67
2022-09-07T21:16:16.998Z,23.10
2022-09-07T21:18:45.891Z,23.50
2022-09-07T21:21:20.156Z,23.80
2022-09-07T21:23:49.622Z,23.47
2022-09-07T21:26:21.972Z,22.90
2022-09-07T21:28:54.894Z,23.37
2022-09-07T21:31:23.561Z,21.47
2022-09-07T21:33:55.429Z,23.33
2022-09-07T21:36:26.021Z,22.20
2022-09-07T21:38:55.809Z,21.20
2022-09-07T21:41:25.699Z,22.40
2022-09-07T21:43:56.946Z,23.67
2022-09-07T21:46:26.629Z,23.37
2022-09-07T21:48:56.940Z,23.73
2022-09-07T21:51:28.107Z,23.03
2022-09-07T21:53:58.424Z,22.23
2022-09-07T21:56:28.015Z,24.20
2022-09-07T21:58:57.469Z,24.07
2022-09-07T22:01:28.092Z,24.20
2022-09-07T22:03:59.037Z,27.70
2022-09-07T22:06:29.764Z,25.17
2022-09-07T22:08:58.647Z,24.90
2022-09-07T22:11:28.820Z,24.30
2022-09-07T22:13:59.999Z,23.00
2022-09-07T22:16:28.830Z,23.87
2022-09-07T22:18:57.564Z,24.90
2022-09-07T22:21:29.542Z,23.20
2022-09-07T22:24:00.247Z,23.97
2022-09-07T22:26:30.583Z,23.50
2022-09-07T22:29:00.208Z,22.23
2022-09-07T22:31:30.687Z,20.67
2022-09-07T22:34:00.354Z,21.73
2022-09-07T22:36:32.402Z,23.70
2022-09-07T22:39:02.644Z,24.60
2022-09-07T22:41:33.198Z,23.83
2022-09-07T22:44:02.184Z,22.07
2022-09-07T22:46:35.219Z,22.97
2022-09-07T22:49:03.957Z,25.50
2022-09-07T22:51:33.964Z,24.00
2022-09-07T22:54:02.488Z,23.63
2022-09-07T22:56:32.997Z,22.77
2022-09-07T22:59:03.541Z,24.67
2022-09-07T23:01:33.113Z,23.90
2022-09-07T23:04:02.456Z,24.90
2022-09-07T23:06:34.547Z,21.97
2022-09-07T23:09:07.174Z,23.97
2022-09-07T23:11:35.729Z,24.30
2022-09-07T23:14:06.831Z,25.43
2022-09-07T23:16:35.388Z,22.83
2022-09-07T23:19:03.982Z,23.60
2022-09-07T23:21:33.850Z,23.20
2022-09-07T23:24:03.126Z,21.40
2022-09-07T23:26:33.072Z,21.07
2022-09-07T23:29:03.398Z,23.20
2022-09-07T23:31:33.884Z,23.43
2022-09-07T23:34:02.880Z,24.23
2022-09-07T23:36:33.179Z,22.20
2022-09-07T23:39:01.834Z,24.90
2022-09-07T23:41:30.351Z,24.23
2022-09-07T23:43:59.775Z,23.10
2022-09-07T23:46:28.408Z,23.13
2022-09-07T23:48:56.943Z,24.03
2022-09-07T23:51:25.435Z,25.87
2022-09-07T23:53:55.291Z,25.03
2022-09-07T23:56:24.687Z,24.00
2022-09-07T23:58:53.296Z,24.83
